Time;durP1;ratioP1;P1;durP2;ratioP2;P2;SDS_P1;SDS_P2;PMS_P1;PMS_P2;Temp;Humidity;BMP_temperature;BMP_pressure;BME280_temperature;BME280_humidity;BME280_pressure;Samples;Min_cycle;Max_cycle;Signal;HPM_P1;HPM_P2
2022/05/13 00:00:44;;;;;;;5.53;1.80;;;;;;;;;;4986821;28;20039;-72
2022/05/13 00:03:10;;;;;;;4.95;1.90;;;;;;;;;;4985516;28;20046;-70
2022/05/13 00:05:35;;;;;;;5.57;1.92;;;;;;;;;;4987816;28;20028;-73
2022/05/13 00:08:01;;;;;;;8.40;1.80;;;;;;;;;;4988454;28;20101;-73
2022/05/13 00:10:26;;;;;;;5.07;1.52;;;;;;;;;;4990372;28;20467;-74
2022/05/13 00:12:53;;;;;;;5.03;2.00;;;;;;;;;;4991297;28;20465;-73
2022/05/13 00:15:22;;;;;;;6.32;1.90;;;;;;;;;;4988029;28;20041;-73
2022/05/13 00:17:47;;;;;;;3.63;1.42;;;;;;;;;;4992003;28;20088;-73
2022/05/13 00:20:14;;;;;;;7.07;1.88;;;;;;;;;;4992585;28;20438;-73
2022/05/13 00:22:49;;;;;;;10.43;2.15;;;;;;;;;;4987795;28;20034;-72
2022/05/13 00:25:17;;;;;;;4.30;1.60;;;;;;;;;;4977482;28;20096;-72
2022/05/13 00:27:42;;;;;;;5.13;1.70;;;;;;;;;;4988332;28;20035;-72
2022/05/13 00:30:09;;;;;;;4.38;1.67;;;;;;;;;;4988884;28;20495;-75
2022/05/13 00:32:35;;;;;;;4.20;2.00;;;;;;;;;;4990909;28;20474;-74
2022/05/13 00:35:01;;;;;;;4.22;1.95;;;;;;;;;;4991494;28;20038;-73
2022/05/13 00:37:28;;;;;;;3.38;1.67;;;;;;;;;;4989884;28;20053;-73
2022/05/13 00:39:53;;;;;;;4.55;1.90;;;;;;;;;;4988991;28;20406;-74
2022/05/13 00:42:19;;;;;;;4.32;1.67;;;;;;;;;;4989327;28;20050;-73
2022/05/13 00:44:45;;;;;;;3.70;1.85;;;;;;;;;;4991077;28;20573;-74
2022/05/13 00:47:12;;;;;;;3.13;2.00;;;;;;;;;;4992415;28;20026;-72
2022/05/13 00:49:38;;;;;;;4.57;1.98;;;;;;;;;;4988844;28;20034;-72
2022/05/13 00:52:05;;;;;;;4.85;2.10;;;;;;;;;;4989201;28;20031;-75
2022/05/13 00:54:32;;;;;;;6.97;2.08;;;;;;;;;;4988987;28;20102;-74
2022/05/13 00:56:59;;;;;;;5.28;1.73;;;;;;;;;;4988546;28;20026;-73
2022/05/13 00:59:27;;;;;;;4.00;2.00;;;;;;;;;;4990584;28;20374;-73
2022/05/13 01:01:53;;;;;;;2.97;1.50;;;;;;;;;;4989049;28;20121;-74
2022/05/13 01:04:20;;;;;;;2.78;1.80;;;;;;;;;;4988969;28;20137;-74
2022/05/13 01:06:54;;;;;;;3.60;1.60;;;;;;;;;;4988105;28;20046;-73
2022/05/13 01:09:21;;;;;;;4.47;1.83;;;;;;;;;;4984497;28;20126;-74
2022/05/13 01:11:52;;;;;;;3.92;1.67;;;;;;;;;;4991379;28;20022;-74
2022/05/13 01:14:24;;;;;;;5.20;1.75;;;;;;;;;;4989613;28;20041;-74
2022/05/13 01:19:34;;;;;;;4.85;1.85;;;;;;;;;;4987663;28;20089;-74
2022/05/13 01:22:16;;;;;;;3.50;1.88;;;;;;;;;;4988114;28;20050;-74
2022/05/13 01:24:43;;;;;;;5.50;1.90;;;;;;;;;;4989155;28;20044;-73
2022/05/13 01:27:09;;;;;;;3.50;2.00;;;;;;;;;;4989449;28;20168;-72
2022/05/13 01:29:34;;;;;;;4.60;1.90;;;;;;;;;;4988784;28;20093;-72
2022/05/13 01:31:59;;;;;;;6.28;2.45;;;;;;;;;;4986171;28;20104;-72
2022/05/13 01:34:25;;;;;;;6.95;2.00;;;;;;;;;;4991368;28;20053;-71
2022/05/13 01:36:50;;;;;;;4.90;2.20;;;;;;;;;;4989464;28;20410;-74
2022/05/13 01:39:15;;;;;;;5.35;2.17;;;;;;;;;;4991614;28;20462;-74
2022/05/13 01:41:41;;;;;;;5.03;1.92;;;;;;;;;;4989077;28;20022;-74
2022/05/13 01:44:07;;;;;;;6.53;2.38;;;;;;;;;;5006265;28;20133;-74
2022/05/13 01:46:32;;;;;;;4.40;2.35;;;;;;;;;;4988573;28;20031;-73
2022/05/13 01:48:57;;;;;;;3.15;2.08;;;;;;;;;;4988309;28;20064;-72
2022/05/13 01:51:23;;;;;;;5.30;2.10;;;;;;;;;;4990182;28;20050;-73
2022/05/13 01:53:49;;;;;;;7.07;2.15;;;;;;;;;;4989580;28;20109;-74
2022/05/13 01:56:15;;;;;;;6.57;2.20;;;;;;;;;;4987740;28;20062;-74
2022/05/13 01:58:40;;;;;;;4.85;2.40;;;;;;;;;;4988918;28;20410;-74
2022/05/13 02:01:07;;;;;;;2.90;1.90;;;;;;;;;;4988613;28;20042;-72
2022/05/13 02:03:45;;;;;;;3.67;2.08;;;;;;;;;;4988017;28;20109;-75
2022/05/13 02:06:12;;;;;;;5.05;2.00;;;;;;;;;;4986974;28;20490;-72
2022/05/13 02:08:37;;;;;;;3.05;2.28;;;;;;;;;;4989607;28;20053;-75
2022/05/13 02:11:03;;;;;;;7.18;2.13;;;;;;;;;;4988972;28;20046;-74
2022/05/13 02:13:29;;;;;;;7.53;2.60;;;;;;;;;;4987996;28;20053;-73
2022/05/13 02:15:54;;;;;;;6.10;2.40;;;;;;;;;;4987236;28;20043;-73
2022/05/13 02:18:21;;;;;;;5.25;2.40;;;;;;;;;;4987666;28;20076;-74
2022/05/13 02:20:46;;;;;;;6.97;2.35;;;;;;;;;;4987805;28;20033;-74
2022/05/13 02:23:12;;;;;;;4.75;2.20;;;;;;;;;;4990934;28;20038;-73
2022/05/13 02:25:38;;;;;;;4.80;2.10;;;;;;;;;;4986874;28;20552;-73
2022/05/13 02:28:04;;;;;;;3.70;2.00;;;;;;;;;;4985838;28;20038;-73
2022/05/13 02:30:31;;;;;;;6.82;2.05;;;;;;;;;;4987512;28;20046;-74
2022/05/13 02:32:56;;;;;;;5.22;2.10;;;;;;;;;;4990547;28;20386;-73
2022/05/13 02:35:22;;;;;;;4.32;1.80;;;;;;;;;;4989965;28;20036;-73
2022/05/13 02:37:49;;;;;;;4.30;2.30;;;;;;;;;;4988610;28;20046;-71
2022/05/13 02:40:16;;;;;;;9.93;2.70;;;;;;;;;;4987554;28;20043;-77
2022/05/13 02:42:41;;;;;;;5.03;2.10;;;;;;;;;;4991390;28;20043;-75
2022/05/13 02:45:10;;;;;;;4.05;1.98;;;;;;;;;;4990404;28;20042;-75
2022/05/13 02:47:40;;;;;;;4.15;2.17;;;;;;;;;;4990048;28;20025;-76
2022/05/13 02:50:20;;;;;;;5.03;2.30;;;;;;;;;;4984238;28;20039;-76
2022/05/13 02:52:47;;;;;;;3.92;1.88;;;;;;;;;;4986398;28;20514;-75
2022/05/13 02:55:13;;;;;;;4.25;2.30;;;;;;;;;;4985351;28;20038;-73
2022/05/13 02:57:38;;;;;;;6.38;2.00;;;;;;;;;;4985961;28;20563;-72
2022/05/13 03:00:05;;;;;;;12.63;2.22;;;;;;;;;;4987529;28;20486;-73
2022/05/13 03:02:31;;;;;;;6.05;2.28;;;;;;;;;;4990707;28;20026;-76
2022/05/13 03:04:57;;;;;;;9.18;2.42;;;;;;;;;;4988357;28;20050;-75
2022/05/13 03:07:22;;;;;;;5.15;1.85;;;;;;;;;;4988695;28;20041;-76
2022/05/13 03:09:48;;;;;;;6.55;2.03;;;;;;;;;;4985572;28;20076;-75
2022/05/13 03:12:13;;;;;;;5.10;2.25;;;;;;;;;;4986621;28;20070;-75
2022/05/13 03:14:39;;;;;;;4.82;1.98;;;;;;;;;;4989372;28;20073;-75
2022/05/13 03:17:07;;;;;;;6.25;2.20;;;;;;;;;;4988423;28;20031;-75
2022/05/13 03:19:35;;;;;;;6.53;2.38;;;;;;;;;;4990765;28;20039;-75
2022/05/13 03:22:01;;;;;;;4.10;1.83;;;;;;;;;;4986963;28;20640;-76
2022/05/13 03:24:26;;;;;;;4.18;1.98;;;;;;;;;;4987740;28;20042;-76
2022/05/13 03:26:52;;;;;;;3.95;2.00;;;;;;;;;;4986587;28;20045;-75
2022/05/13 03:29:20;;;;;;;4.38;2.30;;;;;;;;;;4987139;28;20154;-75
2022/05/13 03:31:45;;;;;;;4.03;2.20;;;;;;;;;;4982196;28;20050;-76
2022/05/13 03:34:11;;;;;;;3.67;2.30;;;;;;;;;;4989250;28;20034;-75
2022/05/13 03:36:36;;;;;;;3.90;1.90;;;;;;;;;;4985411;28;20626;-73
2022/05/13 03:39:02;;;;;;;4.55;2.10;;;;;;;;;;4988343;28;20050;-75
2022/05/13 03:41:27;;;;;;;3.50;2.22;;;;;;;;;;4987935;28;20034;-76
2022/05/13 03:43:53;;;;;;;42.88;22.90;;;;;;;;;;4987989;28;20030;-76
2022/05/13 03:46:18;;;;;;;5.80;2.80;;;;;;;;;;4986486;28;20038;-74
2022/05/13 03:48:43;;;;;;;4.70;2.53;;;;;;;;;;4988724;28;20030;-74
2022/05/13 03:51:09;;;;;;;6.95;2.70;;;;;;;;;;4986454;28;20037;-73
2022/05/13 03:53:34;;;;;;;8.02;2.45;;;;;;;;;;4985533;28;20030;-74
2022/05/13 03:56:00;;;;;;;7.68;2.55;;;;;;;;;;4987682;28;20034;-73
2022/05/13 03:58:25;;;;;;;7.07;2.90;;;;;;;;;;4989004;28;20506;-75
2022/05/13 04:00:51;;;;;;;7.40;2.78;;;;;;;;;;4988759;28;20031;-74
2022/05/13 04:03:19;;;;;;;5.18;2.65;;;;;;;;;;4987129;28;20069;-74
2022/05/13 04:11:13;;;;;;;4.50;2.45;;;;;;;;;;4988494;28;20624;-75
2022/05/13 04:16:22;;;;;;;7.93;2.50;;;;;;;;;;4985218;28;20041;-74
2022/05/13 04:18:50;;;;;;;4.57;2.28;;;;;;;;;;5007235;28;20042;-75
2022/05/13 04:21:28;;;;;;;8.40;2.60;;;;;;;;;;4987941;28;20039;-74
2022/05/13 04:23:55;;;;;;;7.05;2.70;;;;;;;;;;4984907;28;20026;-75
2022/05/13 04:26:22;;;;;;;9.82;2.55;;;;;;;;;;4987640;28;20478;-75
2022/05/13 04:28:49;;;;;;;7.75;2.50;;;;;;;;;;4987462;28;20041;-74
2022/05/13 04:31:20;;;;;;;10.20;2.45;;;;;;;;;;4986101;28;20055;-74
2022/05/13 04:33:46;;;;;;;5.70;2.72;;;;;;;;;;4987709;28;20089;-75
2022/05/13 04:36:12;;;;;;;8.20;2.50;;;;;;;;;;4985932;28;20101;-75
2022/05/13 04:38:38;;;;;;;5.70;2.45;;;;;;;;;;4988597;28;20513;-75
2022/05/13 04:43:49;;;;;;;4.50;2.28;;;;;;;;;;4985624;28;20751;-78
2022/05/13 04:46:15;;;;;;;3.13;2.22;;;;;;;;;;4985657;28;20153;-75
2022/05/13 04:48:41;;;;;;;4.15;2.10;;;;;;;;;;4986209;28;20088;-75
2022/05/13 04:51:06;;;;;;;6.47;2.03;;;;;;;;;;4988399;28;20046;-75
2022/05/13 04:53:35;;;;;;;3.45;2.10;;;;;;;;;;4992708;28;20031;-75
2022/05/13 04:56:01;;;;;;;4.55;2.42;;;;;;;;;;4988782;28;20423;-75
2022/05/13 04:58:27;;;;;;;6.82;2.10;;;;;;;;;;4987960;28;20081;-76
2022/05/13 05:00:55;;;;;;;6.25;2.45;;;;;;;;;;4989283;28;20038;-75
2022/05/13 05:03:23;;;;;;;7.55;2.30;;;;;;;;;;4989569;28;20126;-74
2022/05/13 05:05:49;;;;;;;5.75;2.30;;;;;;;;;;4989981;28;20018;-76
2022/05/13 05:08:16;;;;;;;6.68;1.88;;;;;;;;;;4990544;28;20022;-75
2022/05/13 05:10:43;;;;;;;6.80;2.15;;;;;;;;;;4992356;28;20034;-75
2022/05/13 05:13:09;;;;;;;3.63;1.77;;;;;;;;;;4989980;28;20039;-75
2022/05/13 05:15:38;;;;;;;3.70;1.50;;;;;;;;;;4989307;28;20132;-75
2022/05/13 05:18:05;;;;;;;5.93;1.80;;;;;;;;;;4989759;28;20085;-75
2022/05/13 05:20:30;;;;;;;6.03;1.52;;;;;;;;;;4991784;28;20018;-75
2022/05/13 05:22:57;;;;;;;7.68;1.92;;;;;;;;;;4987893;28;20045;-75
2022/05/13 05:25:28;;;;;;;13.35;1.73;;;;;;;;;;4989198;28;20090;-75
2022/05/13 05:27:55;;;;;;;5.97;1.50;;;;;;;;;;4989590;28;20093;-74
2022/05/13 05:30:20;;;;;;;5.82;1.73;;;;;;;;;;4993476;28;20516;-76
2022/05/13 05:32:46;;;;;;;10.30;1.50;;;;;;;;;;4988911;28;20026;-75
2022/05/13 05:35:18;;;;;;;7.80;2.08;;;;;;;;;;4992088;28;20030;-75
2022/05/13 05:37:43;;;;;;;7.22;1.73;;;;;;;;;;4988416;28;20056;-73
2022/05/13 05:40:10;;;;;;;9.57;1.98;;;;;;;;;;4990853;28;20042;-75
2022/05/13 05:42:40;;;;;;;6.45;2.20;;;;;;;;;;4991142;28;20038;-75
2022/05/13 05:45:09;;;;;;;5.88;1.83;;;;;;;;;;4989876;28;20035;-74
2022/05/13 05:47:35;;;;;;;5.18;1.55;;;;;;;;;;4989564;28;20326;-76
2022/05/13 05:50:00;;;;;;;5.05;1.40;;;;;;;;;;4989133;28;20147;-74
2022/05/13 05:52:26;;;;;;;5.18;1.55;;;;;;;;;;4989018;28;20516;-74
2022/05/13 05:57:35;;;;;;;7.40;1.60;;;;;;;;;;4991639;28;20385;-74
2022/05/13 06:00:04;;;;;;;5.88;1.40;;;;;;;;;;4989380;28;20121;-74
2022/05/13 06:02:30;;;;;;;8.75;1.50;;;;;;;;;;4992041;28;20089;-75
2022/05/13 06:04:55;;;;;;;7.25;1.55;;;;;;;;;;4987214;28;20042;-74
2022/05/13 06:07:21;;;;;;;10.25;2.03;;;;;;;;;;4991514;28;20050;-74
2022/05/13 06:09:47;;;;;;;11.95;1.50;;;;;;;;;;4987824;28;20049;-74
2022/05/13 06:12:13;;;;;;;8.45;1.63;;;;;;;;;;4991685;28;20097;-75
2022/05/13 06:14:39;;;;;;;8.15;1.42;;;;;;;;;;4991865;28;20093;-74
2022/05/13 06:17:06;;;;;;;9.98;1.42;;;;;;;;;;4991352;28;20039;-74
2022/05/13 06:19:31;;;;;;;5.13;1.23;;;;;;;;;;4991191;28;20057;-74
2022/05/13 06:21:57;;;;;;;3.88;1.30;;;;;;;;;;4990102;28;20068;-75
2022/05/13 06:24:22;;;;;;;4.20;1.23;;;;;;;;;;4990732;28;20093;-73
2022/05/13 06:26:50;;;;;;;2.63;1.10;;;;;;;;;;4989053;28;20022;-75
2022/05/13 06:29:19;;;;;;;4.45;1.15;;;;;;;;;;4987452;28;20443;-74
2022/05/13 06:31:44;;;;;;;4.90;1.40;;;;;;;;;;4992155;28;20034;-74
2022/05/13 06:34:11;;;;;;;3.78;1.20;;;;;;;;;;4990413;28;20073;-74
2022/05/13 06:36:37;;;;;;;4.82;1.40;;;;;;;;;;4987694;28;20042;-74
2022/05/13 06:39:04;;;;;;;6.80;1.98;;;;;;;;;;4988764;28;20475;-74
2022/05/13 06:41:29;;;;;;;6.18;1.10;;;;;;;;;;4991877;28;20520;-72
2022/05/13 06:43:55;;;;;;;5.60;1.42;;;;;;;;;;4988241;28;20164;-75
2022/05/13 06:46:21;;;;;;;4.70;1.50;;;;;;;;;;4988036;28;20406;-74
2022/05/13 06:48:47;;;;;;;5.60;1.60;;;;;;;;;;4988650;28;20042;-74
2022/05/13 06:51:14;;;;;;;3.03;0.77;;;;;;;;;;4988200;28;20038;-74
2022/05/13 06:53:39;;;;;;;2.97;1.00;;;;;;;;;;4989955;28;20037;-74
2022/05/13 06:56:04;;;;;;;4.35;0.80;;;;;;;;;;4984080;28;20041;-74
2022/05/13 06:58:30;;;;;;;4.35;1.00;;;;;;;;;;4984553;28;20044;-74
2022/05/13 07:00:55;;;;;;;4.03;1.20;;;;;;;;;;4987746;28;20038;-74
2022/05/13 07:03:21;;;;;;;5.35;1.00;;;;;;;;;;4986738;28;20038;-74
2022/05/13 07:05:47;;;;;;;6.45;1.00;;;;;;;;;;4988262;28;20474;-75
2022/05/13 07:08:13;;;;;;;5.38;1.02;;;;;;;;;;4987983;28;20512;-74
2022/05/13 07:10:40;;;;;;;5.53;1.30;;;;;;;;;;4988192;28;20462;-75
2022/05/13 07:13:10;;;;;;;4.80;1.13;;;;;;;;;;4984116;28;20040;-74
2022/05/13 07:15:36;;;;;;;6.95;0.90;;;;;;;;;;4988188;28;20045;-74
2022/05/13 07:18:02;;;;;;;2.80;0.80;;;;;;;;;;4988214;28;20026;-74
2022/05/13 07:20:28;;;;;;;4.93;1.13;;;;;;;;;;4984331;28;20607;-74
2022/05/13 07:22:54;;;;;;;4.57;0.90;;;;;;;;;;4987198;28;20038;-75
2022/05/13 07:25:21;;;;;;;4.32;0.80;;;;;;;;;;4987059;28;20384;-75
2022/05/13 07:27:47;;;;;;;2.78;0.95;;;;;;;;;;4985773;28;20057;-73
2022/05/13 07:30:13;;;;;;;4.07;1.10;;;;;;;;;;4987649;28;20042;-74
2022/05/13 07:32:39;;;;;;;5.32;1.15;;;;;;;;;;4987666;28;20026;-75
2022/05/13 07:35:05;;;;;;;6.50;1.20;;;;;;;;;;4986451;28;20030;-74
2022/05/13 07:37:31;;;;;;;4.22;1.08;;;;;;;;;;4987214;28;20445;-75
2022/05/13 07:42:40;;;;;;;6.75;1.10;;;;;;;;;;4988920;28;20057;-75
2022/05/13 07:45:07;;;;;;;3.38;0.90;;;;;;;;;;4986830;28;20046;-73
2022/05/13 07:47:33;;;;;;;3.80;1.23;;;;;;;;;;4989576;28;20019;-74
2022/05/13 07:49:59;;;;;;;4.07;1.00;;;;;;;;;;4983723;28;20485;-74
2022/05/13 07:52:26;;;;;;;4.35;1.05;;;;;;;;;;4987576;28;20035;-73
2022/05/13 07:54:51;;;;;;;7.25;1.38;;;;;;;;;;4983245;28;20121;-74
2022/05/13 07:57:17;;;;;;;4.30;0.95;;;;;;;;;;4988284;28;20461;-75
2022/05/13 08:02:27;;;;;;;3.08;0.82;;;;;;;;;;4989837;28;20183;-74
2022/05/13 08:04:52;;;;;;;6.65;1.20;;;;;;;;;;4987633;28;20133;-74
2022/05/13 08:07:18;;;;;;;3.85;0.80;;;;;;;;;;4986221;28;20398;-74
2022/05/13 08:09:43;;;;;;;4.43;1.20;;;;;;;;;;4987191;28;20035;-73
2022/05/13 08:12:09;;;;;;;4.60;0.98;;;;;;;;;;4985744;28;20041;-74
2022/05/13 08:14:34;;;;;;;6.22;0.80;;;;;;;;;;4990709;28;20018;-74
2022/05/13 08:17:00;;;;;;;2.15;0.70;;;;;;;;;;4990354;28;20034;-74
2022/05/13 08:19:26;;;;;;;3.67;0.88;;;;;;;;;;4987248;28;20050;-75
2022/05/13 08:21:51;;;;;;;3.47;0.80;;;;;;;;;;4990803;28;20406;-74
2022/05/13 08:24:17;;;;;;;6.45;1.20;;;;;;;;;;4985414;28;20141;-74
2022/05/13 08:26:42;;;;;;;3.80;0.80;;;;;;;;;;4991723;28;20519;-74
2022/05/13 08:29:08;;;;;;;4.90;0.93;;;;;;;;;;4993822;28;20030;-74
2022/05/13 08:31:33;;;;;;;3.38;0.90;;;;;;;;;;4994013;28;20118;-74
2022/05/13 08:33:59;;;;;;;4.88;1.00;;;;;;;;;;4992944;28;20037;-74
2022/05/13 08:36:24;;;;;;;5.65;0.88;;;;;;;;;;4991537;28;20038;-74
2022/05/13 08:38:50;;;;;;;3.85;0.82;;;;;;;;;;4989422;28;20540;-74
2022/05/13 08:41:34;;;;;;;4.00;1.10;;;;;;;;;;4973921;28;20041;-73
2022/05/13 08:44:04;;;;;;;3.00;0.82;;;;;;;;;;4992354;28;20034;-74
2022/05/13 08:46:40;;;;;;;3.25;0.80;;;;;;;;;;4990387;28;20529;-73
2022/05/13 08:49:34;;;;;;;3.67;0.70;;;;;;;;;;4991525;28;20585;-74
2022/05/13 08:53:06;;;;;;;4.47;0.85;;;;;;;;;;4985304;28;20126;-72
2022/05/13 08:54:53;;;;;;;3.53;1.05;;;;;;;;;;4990022;28;20502;-73
2022/05/13 08:57:19;;;;;;;4.65;0.98;;;;;;;;;;4990323;28;20124;-73
2022/05/13 08:59:53;;;;;;;3.80;0.63;;;;;;;;;;4989852;28;20081;-75
2022/05/13 09:02:28;;;;;;;3.42;0.95;;;;;;;;;;4989326;28;20121;-74
2022/05/13 09:05:05;;;;;;;4.25;0.82;;;;;;;;;;4990305;28;20502;-74
2022/05/13 09:07:31;;;;;;;4.43;0.90;;;;;;;;;;5007929;28;20517;-73
2022/05/13 09:10:00;;;;;;;3.50;0.90;;;;;;;;;;4991855;28;20034;-74
2022/05/13 09:12:47;;;;;;;4.32;1.10;;;;;;;;;;4992634;28;20034;-73
2022/05/13 09:15:25;;;;;;;3.53;1.15;;;;;;;;;;4989352;28;20522;-74
2022/05/13 09:18:05;;;;;;;6.50;0.85;;;;;;;;;;4989417;28;20042;-73
2022/05/13 09:20:40;;;;;;;5.07;1.15;;;;;;;;;;4991765;28;20113;-73
2022/05/13 09:23:09;;;;;;;3.47;1.08;;;;;;;;;;4988991;28;20054;-74
2022/05/13 09:26:03;;;;;;;2.97;0.80;;;;;;;;;;4992919;28;20502;-73
2022/05/13 09:28:29;;;;;;;;;;;;;;;;;;4992825;28;20046;-73
2022/05/13 09:31:05;;;;;;;3.65;0.90;;;;;;;;;;4992716;28;19941;-75
2022/05/13 09:33:34;;;;;;;2.97;0.80;;;;;;;;;;4990134;28;20045;-73
2022/05/13 09:36:03;;;;;;;5.10;1.08;;;;;;;;;;4989377;28;20026;-73
2022/05/13 09:38:40;;;;;;;5.88;1.60;;;;;;;;;;4989396;28;20045;-75
2022/05/13 09:41:08;;;;;;;3.80;1.00;;;;;;;;;;4989495;28;20477;-74
2022/05/13 09:43:37;;;;;;;4.43;0.95;;;;;;;;;;4990344;28;20137;-74
2022/05/13 09:46:07;;;;;;;6.10;1.27;;;;;;;;;;4988979;28;20034;-73
2022/05/13 09:48:36;;;;;;;3.95;0.95;;;;;;;;;;4988540;28;20092;-74
2022/05/13 09:51:25;;;;;;;5.97;1.00;;;;;;;;;;4988419;28;20038;-73
2022/05/13 09:54:05;;;;;;;2.15;0.80;;;;;;;;;;4985682;28;20033;-74
2022/05/13 09:56:42;;;;;;;3.90;0.93;;;;;;;;;;4985757;28;20031;-73
2022/05/13 09:59:18;;;;;;;3.38;1.02;;;;;;;;;;4987203;28;20405;-71
2022/05/13 10:01:43;;;;;;;4.10;1.02;;;;;;;;;;4987364;28;20565;-74
2022/05/13 10:04:12;;;;;;;4.57;0.98;;;;;;;;;;4988237;28;20063;-73
2022/05/13 10:06:39;;;;;;;3.10;0.95;;;;;;;;;;4989712;28;20066;-74
2022/05/13 10:15:07;;;;;;;4.57;0.90;;;;;;;;;;4985146;28;20132;-74
2022/05/13 10:17:32;;;;;;;2.25;0.77;;;;;;;;;;4990106;28;20034;-75
2022/05/13 10:20:08;;;;;;;5.05;1.00;;;;;;;;;;4987311;28;20418;-73
2022/05/13 10:22:56;;;;;;;2.10;1.10;;;;;;;;;;4989257;28;20062;-72
2022/05/13 10:25:27;;;;;;;3.15;0.82;;;;;;;;;;4985455;28;20042;-75
2022/05/13 10:28:01;;;;;;;3.55;0.80;;;;;;;;;;4987496;28;20038;-75
2022/05/13 10:30:54;;;;;;;3.35;0.90;;;;;;;;;;4987989;28;20129;-73
2022/05/13 10:33:43;;;;;;;3.53;1.00;;;;;;;;;;4986263;28;20038;-74
2022/05/13 10:36:14;;;;;;;2.80;1.08;;;;;;;;;;4988577;28;20488;-73
2022/05/13 10:38:50;;;;;;;4.63;0.95;;;;;;;;;;4990166;28;20089;-74
2022/05/13 10:41:58;;;;;;;4.38;1.02;;;;;;;;;;4988140;28;20045;-74
2022/05/13 10:44:45;;;;;;;5.35;1.27;;;;;;;;;;4989056;28;20061;-74
2022/05/13 10:47:29;;;;;;;3.25;1.10;;;;;;;;;;4991145;28;20549;-73
2022/05/13 10:49:55;;;;;;;3.80;1.23;;;;;;;;;;4985280;28;20125;-73
2022/05/13 10:52:50;;;;;;;4.40;1.17;;;;;;;;;;4988282;28;20485;-71
2022/05/13 10:55:29;;;;;;;3.67;0.95;;;;;;;;;;4988186;28;20049;-74
2022/05/13 10:58:28;;;;;;;2.35;1.20;;;;;;;;;;4993012;28;20046;-74
2022/05/13 11:01:03;;;;;;;6.22;1.58;;;;;;;;;;4988368;28;20410;-74
2022/05/13 11:04:10;;;;;;;2.80;1.10;;;;;;;;;;4991381;28;20038;-74
2022/05/13 11:07:22;;;;;;;4.05;0.93;;;;;;;;;;4986662;28;20050;-74
2022/05/13 11:10:24;;;;;;;5.63;1.05;;;;;;;;;;4986020;28;20045;-73
2022/05/13 11:13:05;;;;;;;3.17;1.00;;;;;;;;;;4986272;28;20332;-73
2022/05/13 11:16:00;;;;;;;5.82;1.05;;;;;;;;;;4987056;28;20561;-72
2022/05/13 11:18:48;;;;;;;3.83;1.13;;;;;;;;;;4990320;28;20189;-74
2022/05/13 11:21:31;;;;;;;4.00;1.08;;;;;;;;;;4988672;28;20045;-73
2022/05/13 11:27:45;;;;;;;2.55;0.77;;;;;;;;;;4984567;28;20054;-72
2022/05/13 11:30:18;;;;;;;3.88;0.80;;;;;;;;;;4989434;28;20100;-74
2022/05/13 11:32:59;;;;;;;2.35;0.80;;;;;;;;;;4987935;28;20436;-74
2022/05/13 11:35:39;;;;;;;3.22;1.10;;;;;;;;;;4987379;28;20053;-74
2022/05/13 11:38:25;;;;;;;2.90;1.00;;;;;;;;;;4987956;28;20518;-75
2022/05/13 11:40:59;;;;;;;2.63;0.80;;;;;;;;;;4987447;28;20041;-73
2022/05/13 11:43:58;;;;;;;9.07;1.42;;;;;;;;;;4986592;28;20050;-74
2022/05/13 11:46:39;;;;;;;3.40;0.80;;;;;;;;;;4986353;28;20410;-74
2022/05/13 11:49:21;;;;;;;3.88;0.90;;;;;;;;;;4987536;28;20082;-74
2022/05/13 11:51:46;;;;;;;4.65;1.25;;;;;;;;;;4985248;28;20038;-73
2022/05/13 11:54:20;;;;;;;2.13;0.90;;;;;;;;;;4989780;28;20050;-73
2022/05/13 11:56:46;;;;;;;2.47;1.00;;;;;;;;;;4988958;28;20413;-73
2022/05/13 11:59:27;;;;;;;3.72;0.80;;;;;;;;;;4988967;28;20355;-74
2022/05/13 12:02:07;;;;;;;6.50;1.13;;;;;;;;;;4989753;28;20350;-75
2022/05/13 12:04:36;;;;;;;5.13;1.40;;;;;;;;;;4989057;28;20074;-74
2022/05/13 12:07:31;;;;;;;4.68;1.00;;;;;;;;;;4990476;28;20065;-72
2022/05/13 12:10:00;;;;;;;5.07;1.20;;;;;;;;;;4988694;28;20046;-77
2022/05/13 12:12:41;;;;;;;3.03;1.02;;;;;;;;;;4989746;28;20096;-74
2022/05/13 12:15:31;;;;;;;6.10;0.90;;;;;;;;;;4988757;28;20525;-75
2022/05/13 12:18:22;;;;;;;2.38;0.93;;;;;;;;;;4991882;28;20482;-74
2022/05/13 12:21:27;;;;;;;1.75;0.85;;;;;;;;;;4986865;28;20426;-76
2022/05/13 12:24:10;;;;;;;2.17;0.75;;;;;;;;;;4987372;28;20053;-74
2022/05/13 12:26:51;;;;;;;2.42;0.60;;;;;;;;;;4990403;28;20042;-74
2022/05/13 12:29:22;;;;;;;3.88;0.77;;;;;;;;;;4988949;28;20144;-75
2022/05/13 12:31:54;;;;;;;2.28;0.70;;;;;;;;;;4986598;28;20030;-75
2022/05/13 12:37:40;;;;;;;3.33;0.80;;;;;;;;;;4987991;28;20041;-74
2022/05/13 12:40:28;;;;;;;4.40;1.08;;;;;;;;;;4988826;28;20406;-74
2022/05/13 12:43:04;;;;;;;3.30;0.98;;;;;;;;;;4988459;28;21206;-75
2022/05/13 12:45:57;;;;;;;6.80;1.10;;;;;;;;;;4987948;28;20398;-74
2022/05/13 12:48:22;;;;;;;2.22;0.90;;;;;;;;;;4988144;28;20038;-75
2022/05/13 12:51:10;;;;;;;4.25;0.90;;;;;;;;;;4987677;28;20030;-76
2022/05/13 12:53:43;;;;;;;3.10;0.90;;;;;;;;;;4984415;28;21155;-74
2022/05/13 12:56:10;;;;;;;7.60;1.30;;;;;;;;;;4986394;28;20054;-73
2022/05/13 12:58:39;;;;;;;5.13;1.10;;;;;;;;;;4986962;28;20328;-75
2022/05/13 13:01:05;;;;;;;4.70;1.17;;;;;;;;;;4986913;28;20498;-74
2022/05/13 13:03:38;;;;;;;1.83;0.90;;;;;;;;;;4990381;28;20087;-74
2022/05/13 13:06:16;;;;;;;5.10;0.90;;;;;;;;;;4991023;28;20034;-75
2022/05/13 13:08:44;;;;;;;2.42;0.77;;;;;;;;;;4990619;28;20034;-75
2022/05/13 13:11:13;;;;;;;1.75;0.63;;;;;;;;;;4989402;28;20042;-75
2022/05/13 13:14:12;;;;;;;4.40;0.90;;;;;;;;;;4990996;28;20034;-74
2022/05/13 13:16:52;;;;;;;3.20;0.93;;;;;;;;;;4989340;28;20046;-75
2022/05/13 13:19:21;;;;;;;2.75;0.73;;;;;;;;;;4987604;28;20058;-75
2022/05/13 13:21:54;;;;;;;3.75;0.95;;;;;;;;;;4972925;28;20057;-75
2022/05/13 13:24:44;;;;;;;4.20;0.73;;;;;;;;;;4990098;28;20077;-75
2022/05/13 13:27:15;;;;;;;3.00;1.17;;;;;;;;;;4990338;28;20042;-72
2022/05/13 13:29:43;;;;;;;3.20;0.83;;;;;;;;;;4991630;28;20046;-74
2022/05/13 13:32:18;;;;;;;1.48;0.63;;;;;;;;;;4990040;28;20050;-74
2022/05/13 13:34:57;;;;;;;2.25;0.85;;;;;;;;;;4992684;28;20465;-75
2022/05/13 13:37:26;;;;;;;2.65;0.75;;;;;;;;;;4991271;28;20372;-75
2022/05/13 13:39:52;;;;;;;1.90;0.82;;;;;;;;;;4994826;28;20053;-75
2022/05/13 13:42:20;;;;;;;4.97;0.98;;;;;;;;;;4994818;28;20451;-76
2022/05/13 13:44:47;;;;;;;3.08;0.75;;;;;;;;;;4993788;28;20042;-73
2022/05/13 13:47:39;;;;;;;3.58;0.80;;;;;;;;;;4994747;28;20022;-73
2022/05/13 13:50:06;;;;;;;2.20;0.90;;;;;;;;;;4984009;28;20038;-74
2022/05/13 13:52:35;;;;;;;3.75;1.00;;;;;;;;;;4994405;28;20070;-73
2022/05/13 13:55:07;;;;;;;3.58;0.75;;;;;;;;;;4996019;28;20037;-75
2022/05/13 13:58:00;;;;;;;2.22;0.80;;;;;;;;;;4991183;28;20042;-75
2022/05/13 14:00:42;;;;;;;3.78;0.63;;;;;;;;;;4993836;28;20565;-75
2022/05/13 14:03:18;;;;;;;1.08;0.80;;;;;;;;;;4990499;28;20061;-74
2022/05/13 14:05:59;;;;;;;5.57;0.77;;;;;;;;;;4991106;28;20058;-74
2022/05/13 14:08:27;;;;;;;1.88;0.88;;;;;;;;;;4990087;28;20101;-75
2022/05/13 14:10:58;;;;;;;2.25;0.70;;;;;;;;;;4989795;28;20030;-75
2022/05/13 14:13:30;;;;;;;1.98;0.63;;;;;;;;;;4989741;28;20188;-74
2022/05/13 14:16:03;;;;;;;3.80;0.80;;;;;;;;;;4991552;28;20039;-76
2022/05/13 14:18:28;;;;;;;5.95;0.88;;;;;;;;;;4988495;28;20361;-76
2022/05/13 14:21:06;;;;;;;1.65;0.75;;;;;;;;;;4989175;28;20129;-75
2022/05/13 14:23:33;;;;;;;3.10;0.80;;;;;;;;;;4991073;28;20057;-73
2022/05/13 14:26:02;;;;;;;2.92;0.88;;;;;;;;;;4988801;28;20057;-74
2022/05/13 14:28:34;;;;;;;2.03;0.65;;;;;;;;;;4990700;28;20038;-74
2022/05/13 14:31:07;;;;;;;1.65;0.55;;;;;;;;;;4994226;28;20034;-73
2022/05/13 14:33:38;;;;;;;6.10;1.00;;;;;;;;;;4991206;28;20084;-75
2022/05/13 14:36:06;;;;;;;2.80;0.70;;;;;;;;;;4990841;28;20038;-75
2022/05/13 14:41:33;;;;;;;1.85;1.30;;;;;;;;;;4988269;28;20073;-73
2022/05/13 14:43:59;;;;;;;3.13;0.68;;;;;;;;;;4990219;28;20034;-74
2022/05/13 14:46:27;;;;;;;2.88;0.82;;;;;;;;;;4986572;28;20511;-75
2022/05/13 14:48:52;;;;;;;6.07;1.13;;;;;;;;;;4991256;28;20038;-75
2022/05/13 14:51:23;;;;;;;1.77;0.93;;;;;;;;;;4987917;28;20043;-76
2022/05/13 14:54:03;;;;;;;2.25;0.70;;;;;;;;;;4990749;28;20430;-73
2022/05/13 14:56:47;;;;;;;3.50;0.80;;;;;;;;;;4988919;28;20030;-72
2022/05/13 14:59:28;;;;;;;3.75;0.70;;;;;;;;;;4986827;28;20069;-74
2022/05/13 15:01:54;;;;;;;1.33;0.70;;;;;;;;;;4983754;28;20464;-74
2022/05/13 15:04:32;;;;;;;5.63;0.70;;;;;;;;;;4985418;28;20073;-74
2022/05/13 15:07:13;;;;;;;2.65;0.90;;;;;;;;;;4987356;28;20176;-74
2022/05/13 15:09:39;;;;;;;2.65;0.82;;;;;;;;;;4981416;28;20597;-74
2022/05/13 15:12:06;;;;;;;3.03;0.65;;;;;;;;;;4961677;28;20072;-74
2022/05/13 15:14:33;;;;;;;2.63;0.70;;;;;;;;;;4946919;28;20032;-73
2022/05/13 15:17:01;;;;;;;1.83;0.55;;;;;;;;;;4946220;28;20054;-72
2022/05/13 15:19:29;;;;;;;3.10;0.82;;;;;;;;;;4946443;28;20053;-72
2022/05/13 15:22:07;;;;;;;2.53;0.77;;;;;;;;;;4948465;28;20410;-73
2022/05/13 15:24:36;;;;;;;1.95;0.98;;;;;;;;;;4946300;28;20046;-73
2022/05/13 15:27:05;;;;;;;5.57;0.60;;;;;;;;;;4950039;28;20036;-73
2022/05/13 15:29:35;;;;;;;4.10;1.25;;;;;;;;;;4948513;28;20044;-72
2022/05/13 15:32:04;;;;;;;7.50;1.30;;;;;;;;;;4947526;28;20046;-73
2022/05/13 15:34:30;;;;;;;3.15;0.98;;;;;;;;;;4945748;28;22096;-72
2022/05/13 15:36:56;;;;;;;2.20;0.90;;;;;;;;;;4947011;28;20070;-72
2022/05/13 15:39:21;;;;;;;3.17;1.00;;;;;;;;;;4947638;28;21063;-73
2022/05/13 15:41:47;;;;;;;1.80;0.80;;;;;;;;;;4946785;28;20035;-74